sensor_id;sensor_type;location;lat;lon;timestamp;P1;durP1;ratioP1;P2;durP2;ratioP2
56171;SDS011;42052;41.634;-0.946;2023-09-19T00:00:41;1.80;;;0.73;;
56171;SDS011;42052;41.634;-0.946;2023-09-19T00:03:09;1.27;;;0.57;;
56171;SDS011;42052;41.634;-0.946;2023-09-19T00:05:35;2.03;;;0.70;;
56171;SDS011;42052;41.634;-0.946;2023-09-19T00:08:03;1.90;;;0.60;;
56171;SDS011;42052;41.634;-0.946;2023-09-19T00:10:30;0.98;;;0.60;;
56171;SDS011;42052;41.634;-0.946;2023-09-19T00:12:57;1.92;;;0.75;;
56171;SDS011;42052;41.634;-0.946;2023-09-19T00:15:30;1.73;;;0.60;;
56171;SDS011;42052;41.634;-0.946;2023-09-19T00:18:03;1.85;;;0.50;;
56171;SDS011;42052;41.634;-0.946;2023-09-19T00:20:35;1.92;;;0.60;;
56171;SDS011;42052;41.634;-0.946;2023-09-19T00:23:01;3.70;;;0.70;;
56171;SDS011;42052;41.634;-0.946;2023-09-19T00:25:35;1.40;;;0.57;;
56171;SDS011;42052;41.634;-0.946;2023-09-19T00:28:02;2.67;;;0.60;;
56171;SDS011;42052;41.634;-0.946;2023-09-19T00:30:28;1.15;;;0.60;;
56171;SDS011;42052;41.634;-0.946;2023-09-19T00:32:56;1.52;;;0.60;;
56171;SDS011;42052;41.634;-0.946;2023-09-19T00:35:22;2.58;;;0.60;;
56171;SDS011;42052;41.634;-0.946;2023-09-19T00:37:51;1.02;;;0.52;;
56171;SDS011;42052;41.634;-0.946;2023-09-19T00:40:18;1.73;;;0.70;;
56171;SDS011;42052;41.634;-0.946;2023-09-19T00:42:44;2.10;;;0.70;;
56171;SDS011;42052;41.634;-0.946;2023-09-19T00:45:11;1.77;;;0.80;;
56171;SDS011;42052;41.634;-0.946;2023-09-19T00:47:42;2.63;;;0.60;;
56171;SDS011;42052;41.634;-0.946;2023-09-19T00:50:10;2.38;;;0.70;;
56171;SDS011;42052;41.634;-0.946;2023-09-19T00:52:40;0.95;;;0.60;;
56171;SDS011;42052;41.634;-0.946;2023-09-19T00:57:57;3.60;;;0.90;;
56171;SDS011;42052;41.634;-0.946;2023-09-19T01:00:23;4.00;;;0.60;;
56171;SDS011;42052;41.634;-0.946;2023-09-19T01:02:50;1.58;;;0.75;;
56171;SDS011;42052;41.634;-0.946;2023-09-19T01:05:15;2.45;;;0.75;;
56171;SDS011;42052;41.634;-0.946;2023-09-19T01:07:41;2.58;;;0.80;;
56171;SDS011;42052;41.634;-0.946;2023-09-19T01:10:13;2.20;;;0.80;;
56171;SDS011;42052;41.634;-0.946;2023-09-19T01:18:33;2.38;;;0.90;;
56171;SDS011;42052;41.634;-0.946;2023-09-19T01:29:44;1.70;;;0.88;;
56171;SDS011;42052;41.634;-0.946;2023-09-19T01:32:13;2.83;;;0.90;;
56171;SDS011;42052;41.634;-0.946;2023-09-19T01:34:54;2.03;;;0.82;;
56171;SDS011;42052;41.634;-0.946;2023-09-19T01:39:58;2.33;;;0.80;;
56171;SDS011;42052;41.634;-0.946;2023-09-19T01:47:56;2.40;;;0.88;;
56171;SDS011;42052;41.634;-0.946;2023-09-19T01:50:44;1.17;;;0.68;;
56171;SDS011;42052;41.634;-0.946;2023-09-19T01:53:25;1.00;;;0.70;;
56171;SDS011;42052;41.634;-0.946;2023-09-19T01:55:56;2.95;;;0.90;;
56171;SDS011;42052;41.634;-0.946;2023-09-19T01:58:34;1.33;;;0.73;;
56171;SDS011;42052;41.634;-0.946;2023-09-19T02:01:12;1.90;;;0.80;;
56171;SDS011;42052;41.634;-0.946;2023-09-19T02:03:42;3.10;;;0.97;;
56171;SDS011;42052;41.634;-0.946;2023-09-19T02:06:13;1.20;;;0.85;;
56171;SDS011;42052;41.634;-0.946;2023-09-19T02:08:41;3.40;;;0.80;;
56171;SDS011;42052;41.634;-0.946;2023-09-19T02:11:07;2.40;;;0.80;;
56171;SDS011;42052;41.634;-0.946;2023-09-19T02:13:33;2.35;;;0.90;;
56171;SDS011;42052;41.634;-0.946;2023-09-19T02:15:59;3.45;;;1.00;;
56171;SDS011;42052;41.634;-0.946;2023-09-19T02:18:25;2.20;;;0.90;;
56171;SDS011;42052;41.634;-0.946;2023-09-19T02:20:52;2.35;;;0.90;;
56171;SDS011;42052;41.634;-0.946;2023-09-19T02:23:19;2.25;;;0.85;;
56171;SDS011;42052;41.634;-0.946;2023-09-19T02:25:54;2.08;;;0.80;;
56171;SDS011;42052;41.634;-0.946;2023-09-19T02:28:23;2.15;;;0.80;;
56171;SDS011;42052;41.634;-0.946;2023-09-19T02:30:49;2.35;;;0.80;;
56171;SDS011;42052;41.634;-0.946;2023-09-19T02:33:15;1.98;;;0.80;;
56171;SDS011;42052;41.634;-0.946;2023-09-19T02:35:42;1.90;;;0.77;;
56171;SDS011;42052;41.634;-0.946;2023-09-19T02:38:08;1.80;;;0.90;;
56171;SDS011;42052;41.634;-0.946;2023-09-19T02:40:36;1.02;;;0.80;;
56171;SDS011;42052;41.634;-0.946;2023-09-19T02:43:02;2.60;;;1.00;;
56171;SDS011;42052;41.634;-0.946;2023-09-19T02:45:30;2.30;;;0.95;;
56171;SDS011;42052;41.634;-0.946;2023-09-19T02:47:57;2.38;;;0.90;;
56171;SDS011;42052;41.634;-0.946;2023-09-19T02:50:23;1.88;;;0.90;;
56171;SDS011;42052;41.634;-0.946;2023-09-19T02:52:49;2.92;;;0.90;;
56171;SDS011;42052;41.634;-0.946;2023-09-19T02:55:16;2.47;;;1.00;;
56171;SDS011;42052;41.634;-0.946;2023-09-19T02:57:51;2.20;;;0.90;;
56171;SDS011;42052;41.634;-0.946;2023-09-19T03:00:20;2.70;;;1.10;;
56171;SDS011;42052;41.634;-0.946;2023-09-19T03:02:55;1.85;;;0.90;;
56171;SDS011;42052;41.634;-0.946;2023-09-19T03:05:22;2.13;;;1.00;;
56171;SDS011;42052;41.634;-0.946;2023-09-19T03:07:52;2.47;;;0.93;;
56171;SDS011;42052;41.634;-0.946;2023-09-19T03:10:18;2.10;;;0.95;;
56171;SDS011;42052;41.634;-0.946;2023-09-19T03:12:45;2.38;;;1.00;;
56171;SDS011;42052;41.634;-0.946;2023-09-19T03:15:13;2.58;;;0.93;;
56171;SDS011;42052;41.634;-0.946;2023-09-19T03:17:46;3.17;;;1.20;;
56171;SDS011;42052;41.634;-0.946;2023-09-19T03:20:12;2.25;;;0.90;;
56171;SDS011;42052;41.634;-0.946;2023-09-19T03:22:42;3.15;;;1.15;;
56171;SDS011;42052;41.634;-0.946;2023-09-19T03:25:08;3.30;;;0.98;;
56171;SDS011;42052;41.634;-0.946;2023-09-19T03:27:37;1.83;;;1.00;;
56171;SDS011;42052;41.634;-0.946;2023-09-19T03:30:04;3.13;;;1.40;;
56171;SDS011;42052;41.634;-0.946;2023-09-19T03:32:34;2.92;;;1.10;;
56171;SDS011;42052;41.634;-0.946;2023-09-19T03:35:01;1.95;;;0.90;;
56171;SDS011;42052;41.634;-0.946;2023-09-19T03:37:30;2.67;;;1.10;;
56171;SDS011;42052;41.634;-0.946;2023-09-19T03:39:57;2.35;;;1.15;;
56171;SDS011;42052;41.634;-0.946;2023-09-19T03:42:22;2.75;;;1.10;;
56171;SDS011;42052;41.634;-0.946;2023-09-19T03:44:51;1.92;;;0.90;;
56171;SDS011;42052;41.634;-0.946;2023-09-19T03:47:17;2.47;;;1.10;;
56171;SDS011;42052;41.634;-0.946;2023-09-19T03:49:44;3.03;;;1.10;;
56171;SDS011;42052;41.634;-0.946;2023-09-19T03:52:10;2.53;;;1.10;;
56171;SDS011;42052;41.634;-0.946;2023-09-19T03:54:38;2.47;;;1.30;;
56171;SDS011;42052;41.634;-0.946;2023-09-19T03:57:06;2.38;;;1.02;;
56171;SDS011;42052;41.634;-0.946;2023-09-19T03:59:32;3.20;;;1.17;;
56171;SDS011;42052;41.634;-0.946;2023-09-19T04:01:57;2.70;;;1.13;;
56171;SDS011;42052;41.634;-0.946;2023-09-19T04:04:24;2.05;;;0.93;;
56171;SDS011;42052;41.634;-0.946;2023-09-19T04:06:50;3.10;;;1.40;;
56171;SDS011;42052;41.634;-0.946;2023-09-19T04:09:16;5.10;;;1.40;;
56171;SDS011;42052;41.634;-0.946;2023-09-19T04:11:42;3.10;;;1.15;;
56171;SDS011;42052;41.634;-0.946;2023-09-19T04:14:08;4.13;;;1.20;;
56171;SDS011;42052;41.634;-0.946;2023-09-19T04:16:33;2.80;;;1.20;;
56171;SDS011;42052;41.634;-0.946;2023-09-19T04:18:59;2.40;;;1.10;;
56171;SDS011;42052;41.634;-0.946;2023-09-19T04:21:25;2.67;;;1.15;;
56171;SDS011;42052;41.634;-0.946;2023-09-19T04:23:52;2.80;;;1.23;;
56171;SDS011;42052;41.634;-0.946;2023-09-19T04:26:18;2.83;;;1.20;;
56171;SDS011;42052;41.634;-0.946;2023-09-19T04:28:44;3.58;;;1.38;;
56171;SDS011;42052;41.634;-0.946;2023-09-19T04:31:11;2.97;;;1.40;;
56171;SDS011;42052;41.634;-0.946;2023-09-19T04:33:37;3.30;;;1.27;;
56171;SDS011;42052;41.634;-0.946;2023-09-19T04:36:02;2.08;;;1.10;;
56171;SDS011;42052;41.634;-0.946;2023-09-19T04:38:30;2.97;;;1.27;;
56171;SDS011;42052;41.634;-0.946;2023-09-19T04:40:56;4.72;;;1.23;;
56171;SDS011;42052;41.634;-0.946;2023-09-19T04:43:24;2.75;;;1.30;;
56171;SDS011;42052;41.634;-0.946;2023-09-19T04:45:50;4.32;;;1.60;;
56171;SDS011;42052;41.634;-0.946;2023-09-19T04:48:19;2.95;;;1.20;;
56171;SDS011;42052;41.634;-0.946;2023-09-19T04:50:45;2.28;;;1.30;;
56171;SDS011;42052;41.634;-0.946;2023-09-19T04:53:10;5.22;;;1.40;;
56171;SDS011;42052;41.634;-0.946;2023-09-19T04:55:36;2.63;;;1.23;;
56171;SDS011;42052;41.634;-0.946;2023-09-19T04:58:02;4.75;;;1.40;;
56171;SDS011;42052;41.634;-0.946;2023-09-19T05:00:28;3.90;;;1.50;;
56171;SDS011;42052;41.634;-0.946;2023-09-19T05:02:56;5.43;;;1.48;;
56171;SDS011;42052;41.634;-0.946;2023-09-19T05:05:22;2.95;;;1.42;;
56171;SDS011;42052;41.634;-0.946;2023-09-19T05:10:20;3.08;;;1.23;;
56171;SDS011;42052;41.634;-0.946;2023-09-19T05:12:46;2.70;;;1.27;;
56171;SDS011;42052;41.634;-0.946;2023-09-19T05:15:13;4.45;;;1.30;;
56171;SDS011;42052;41.634;-0.946;2023-09-19T05:17:40;3.90;;;1.60;;
56171;SDS011;42052;41.634;-0.946;2023-09-19T05:20:06;2.33;;;1.10;;
56171;SDS011;42052;41.634;-0.946;2023-09-19T05:22:42;5.20;;;1.50;;
56171;SDS011;42052;41.634;-0.946;2023-09-19T05:25:08;4.93;;;1.30;;
56171;SDS011;42052;41.634;-0.946;2023-09-19T05:27:35;2.70;;;1.30;;
56171;SDS011;42052;41.634;-0.946;2023-09-19T05:30:01;3.05;;;1.30;;
56171;SDS011;42052;41.634;-0.946;2023-09-19T05:32:28;3.65;;;1.30;;
56171;SDS011;42052;41.634;-0.946;2023-09-19T05:34:53;4.10;;;1.13;;
56171;SDS011;42052;41.634;-0.946;2023-09-19T05:37:21;4.35;;;1.50;;
56171;SDS011;42052;41.634;-0.946;2023-09-19T05:39:48;5.88;;;1.70;;
56171;SDS011;42052;41.634;-0.946;2023-09-19T05:42:14;2.97;;;1.33;;
56171;SDS011;42052;41.634;-0.946;2023-09-19T05:44:40;3.38;;;1.40;;
56171;SDS011;42052;41.634;-0.946;2023-09-19T05:47:06;3.92;;;1.27;;
56171;SDS011;42052;41.634;-0.946;2023-09-19T05:49:34;3.35;;;1.30;;
56171;SDS011;42052;41.634;-0.946;2023-09-19T05:52:04;2.85;;;1.27;;
56171;SDS011;42052;41.634;-0.946;2023-09-19T05:54:30;3.13;;;1.20;;
56171;SDS011;42052;41.634;-0.946;2023-09-19T05:56:57;3.72;;;1.42;;
56171;SDS011;42052;41.634;-0.946;2023-09-19T05:59:23;2.55;;;1.20;;
56171;SDS011;42052;41.634;-0.946;2023-09-19T06:01:49;3.35;;;1.20;;
56171;SDS011;42052;41.634;-0.946;2023-09-19T06:04:14;3.30;;;1.50;;
56171;SDS011;42052;41.634;-0.946;2023-09-19T06:06:40;3.13;;;1.38;;
56171;SDS011;42052;41.634;-0.946;2023-09-19T06:09:06;3.42;;;1.30;;
56171;SDS011;42052;41.634;-0.946;2023-09-19T06:11:35;2.90;;;1.25;;
56171;SDS011;42052;41.634;-0.946;2023-09-19T06:14:01;3.70;;;1.33;;
56171;SDS011;42052;41.634;-0.946;2023-09-19T06:16:28;2.53;;;1.20;;
56171;SDS011;42052;41.634;-0.946;2023-09-19T06:18:55;2.47;;;1.30;;
56171;SDS011;42052;41.634;-0.946;2023-09-19T06:21:22;3.13;;;1.35;;
56171;SDS011;42052;41.634;-0.946;2023-09-19T06:23:48;3.17;;;1.35;;
56171;SDS011;42052;41.634;-0.946;2023-09-19T06:26:14;4.72;;;1.40;;
56171;SDS011;42052;41.634;-0.946;2023-09-19T06:28:40;2.42;;;1.02;;
56171;SDS011;42052;41.634;-0.946;2023-09-19T06:31:07;2.83;;;1.30;;
56171;SDS011;42052;41.634;-0.946;2023-09-19T06:33:35;2.25;;;1.40;;
56171;SDS011;42052;41.634;-0.946;2023-09-19T06:36:07;4.13;;;1.40;;
56171;SDS011;42052;41.634;-0.946;2023-09-19T06:38:33;3.10;;;1.48;;
56171;SDS011;42052;41.634;-0.946;2023-09-19T06:41:02;3.63;;;1.20;;
56171;SDS011;42052;41.634;-0.946;2023-09-19T06:43:32;1.83;;;1.10;;
56171;SDS011;42052;41.634;-0.946;2023-09-19T06:45:59;2.00;;;1.00;;
56171;SDS011;42052;41.634;-0.946;2023-09-19T06:48:29;3.30;;;1.23;;
56171;SDS011;42052;41.634;-0.946;2023-09-19T06:50:56;1.98;;;1.30;;
56171;SDS011;42052;41.634;-0.946;2023-09-19T06:53:23;2.45;;;1.33;;
56171;SDS011;42052;41.634;-0.946;2023-09-19T06:55:50;2.72;;;1.23;;
56171;SDS011;42052;41.634;-0.946;2023-09-19T06:58:16;2.97;;;1.30;;
56171;SDS011;42052;41.634;-0.946;2023-09-19T07:00:42;1.80;;;1.10;;
56171;SDS011;42052;41.634;-0.946;2023-09-19T07:03:14;2.80;;;1.40;;
56171;SDS011;42052;41.634;-0.946;2023-09-19T07:05:46;2.20;;;1.00;;
56171;SDS011;42052;41.634;-0.946;2023-09-19T07:08:13;2.40;;;1.10;;
56171;SDS011;42052;41.634;-0.946;2023-09-19T07:10:40;2.47;;;1.20;;
56171;SDS011;42052;41.634;-0.946;2023-09-19T07:13:13;2.10;;;1.25;;
56171;SDS011;42052;41.634;-0.946;2023-09-19T07:15:41;1.40;;;1.15;;
56171;SDS011;42052;41.634;-0.946;2023-09-19T07:18:14;1.70;;;1.15;;
56171;SDS011;42052;41.634;-0.946;2023-09-19T07:20:42;4.43;;;1.30;;
56171;SDS011;42052;41.634;-0.946;2023-09-19T07:23:15;2.80;;;1.15;;
56171;SDS011;42052;41.634;-0.946;2023-09-19T07:25:46;2.10;;;1.20;;
56171;SDS011;42052;41.634;-0.946;2023-09-19T07:28:13;2.35;;;1.10;;
56171;SDS011;42052;41.634;-0.946;2023-09-19T07:30:40;3.15;;;1.40;;
56171;SDS011;42052;41.634;-0.946;2023-09-19T07:33:06;2.90;;;1.40;;
56171;SDS011;42052;41.634;-0.946;2023-09-19T07:35:33;2.17;;;1.35;;
56171;SDS011;42052;41.634;-0.946;2023-09-19T07:37:58;3.72;;;1.38;;
56171;SDS011;42052;41.634;-0.946;2023-09-19T07:40:26;2.50;;;1.00;;
56171;SDS011;42052;41.634;-0.946;2023-09-19T07:42:54;2.55;;;1.02;;
56171;SDS011;42052;41.634;-0.946;2023-09-19T07:45:26;2.40;;;1.05;;
56171;SDS011;42052;41.634;-0.946;2023-09-19T07:47:59;2.47;;;1.10;;
56171;SDS011;42052;41.634;-0.946;2023-09-19T07:50:29;1.90;;;1.20;;
56171;SDS011;42052;41.634;-0.946;2023-09-19T07:52:55;1.85;;;1.10;;
56171;SDS011;42052;41.634;-0.946;2023-09-19T07:55:21;2.13;;;1.23;;
56171;SDS011;42052;41.634;-0.946;2023-09-19T07:57:54;2.05;;;1.38;;
56171;SDS011;42052;41.634;-0.946;2023-09-19T08:00:19;2.35;;;1.25;;
56171;SDS011;42052;41.634;-0.946;2023-09-19T08:02:45;1.80;;;1.20;;
56171;SDS011;42052;41.634;-0.946;2023-09-19T08:05:12;2.63;;;1.13;;
56171;SDS011;42052;41.634;-0.946;2023-09-19T08:07:42;1.95;;;1.10;;
56171;SDS011;42052;41.634;-0.946;2023-09-19T08:10:10;2.13;;;1.05;;
56171;SDS011;42052;41.634;-0.946;2023-09-19T08:12:40;1.90;;;1.10;;
56171;SDS011;42052;41.634;-0.946;2023-09-19T08:15:19;1.90;;;1.00;;
56171;SDS011;42052;41.634;-0.946;2023-09-19T08:17:45;2.13;;;1.15;;
56171;SDS011;42052;41.634;-0.946;2023-09-19T08:20:12;1.88;;;1.10;;
56171;SDS011;42052;41.634;-0.946;2023-09-19T08:22:47;1.73;;;1.10;;
56171;SDS011;42052;41.634;-0.946;2023-09-19T08:25:16;2.22;;;1.10;;
56171;SDS011;42052;41.634;-0.946;2023-09-19T08:27:43;1.95;;;1.15;;
56171;SDS011;42052;41.634;-0.946;2023-09-19T08:30:17;2.40;;;1.10;;
56171;SDS011;42052;41.634;-0.946;2023-09-19T08:32:50;1.92;;;1.10;;
56171;SDS011;42052;41.634;-0.946;2023-09-19T08:35:16;1.80;;;1.00;;
56171;SDS011;42052;41.634;-0.946;2023-09-19T08:37:42;1.35;;;1.20;;
56171;SDS011;42052;41.634;-0.946;2023-09-19T08:40:10;1.77;;;1.00;;
56171;SDS011;42052;41.634;-0.946;2023-09-19T08:42:50;1.70;;;1.00;;
56171;SDS011;42052;41.634;-0.946;2023-09-19T08:45:18;1.92;;;1.00;;
56171;SDS011;42052;41.634;-0.946;2023-09-19T08:51:03;2.85;;;1.08;;
56171;SDS011;42052;41.634;-0.946;2023-09-19T08:53:58;2.35;;;1.20;;
56171;SDS011;42052;41.634;-0.946;2023-09-19T08:56:32;1.55;;;1.00;;
56171;SDS011;42052;41.634;-0.946;2023-09-19T08:59:05;1.77;;;0.98;;
56171;SDS011;42052;41.634;-0.946;2023-09-19T09:01:37;1.38;;;0.90;;
56171;SDS011;42052;41.634;-0.946;2023-09-19T09:04:07;2.08;;;1.10;;
56171;SDS011;42052;41.634;-0.946;2023-09-19T09:06:38;2.88;;;1.20;;
56171;SDS011;42052;41.634;-0.946;2023-09-19T09:09:05;2.75;;;1.27;;
56171;SDS011;42052;41.634;-0.946;2023-09-19T09:11:35;2.08;;;1.17;;
56171;SDS011;42052;41.634;-0.946;2023-09-19T09:14:05;1.40;;;0.88;;
56171;SDS011;42052;41.634;-0.946;2023-09-19T09:16:32;1.77;;;1.20;;
56171;SDS011;42052;41.634;-0.946;2023-09-19T09:18:59;1.92;;;0.93;;
56171;SDS011;42052;41.634;-0.946;2023-09-19T09:21:27;2.17;;;1.10;;
56171;SDS011;42052;41.634;-0.946;2023-09-19T09:23:53;1.80;;;1.00;;
56171;SDS011;42052;41.634;-0.946;2023-09-19T09:29:04;1.70;;;1.00;;
56171;SDS011;42052;41.634;-0.946;2023-09-19T09:31:30;1.98;;;1.00;;
56171;SDS011;42052;41.634;-0.946;2023-09-19T09:33:56;2.17;;;0.85;;
56171;SDS011;42052;41.634;-0.946;2023-09-19T09:36:36;1.80;;;0.98;;
56171;SDS011;42052;41.634;-0.946;2023-09-19T09:39:04;1.77;;;0.82;;
56171;SDS011;42052;41.634;-0.946;2023-09-19T09:41:49;1.38;;;1.00;;
56171;SDS011;42052;41.634;-0.946;2023-09-19T09:44:16;2.13;;;1.20;;
56171;SDS011;42052;41.634;-0.946;2023-09-19T09:46:43;0.98;;;0.70;;
56171;SDS011;42052;41.634;-0.946;2023-09-19T09:49:22;1.55;;;1.10;;
56171;SDS011;42052;41.634;-0.946;2023-09-19T09:52:00;2.50;;;1.00;;
56171;SDS011;42052;41.634;-0.946;2023-09-19T09:54:57;1.73;;;1.00;;
56171;SDS011;42052;41.634;-0.946;2023-09-19T09:57:25;1.33;;;0.93;;
56171;SDS011;42052;41.634;-0.946;2023-09-19T10:02:25;1.30;;;0.90;;
56171;SDS011;42052;41.634;-0.946;2023-09-19T10:04:59;2.00;;;1.10;;
56171;SDS011;42052;41.634;-0.946;2023-09-19T10:07:39;1.77;;;1.10;;
56171;SDS011;42052;41.634;-0.946;2023-09-19T10:10:11;1.77;;;1.07;;
56171;SDS011;42052;41.634;-0.946;2023-09-19T10:12:46;1.95;;;1.13;;
56171;SDS011;42052;41.634;-0.946;2023-09-19T10:15:17;1.73;;;1.00;;
56171;SDS011;42052;41.634;-0.946;2023-09-19T10:17:46;1.13;;;0.70;;
56171;SDS011;42052;41.634;-0.946;2023-09-19T10:20:13;2.28;;;1.08;;
56171;SDS011;42052;41.634;-0.946;2023-09-19T10:23:07;2.17;;;1.20;;
56171;SDS011;42052;41.634;-0.946;2023-09-19T10:25:39;1.25;;;0.90;;
56171;SDS011;42052;41.634;-0.946;2023-09-19T10:28:11;2.25;;;1.13;;
56171;SDS011;42052;41.634;-0.946;2023-09-19T10:33:13;1.30;;;1.00;;
56171;SDS011;42052;41.634;-0.946;2023-09-19T10:35:49;1.55;;;0.98;;
56171;SDS011;42052;41.634;-0.946;2023-09-19T10:38:18;1.08;;;0.95;;
56171;SDS011;42052;41.634;-0.946;2023-09-19T10:40:48;1.63;;;1.00;;
56171;SDS011;42052;41.634;-0.946;2023-09-19T10:43:16;2.05;;;1.00;;
56171;SDS011;42052;41.634;-0.946;2023-09-19T10:45:46;1.17;;;0.70;;
56171;SDS011;42052;41.634;-0.946;2023-09-19T10:48:18;2.85;;;0.98;;
56171;SDS011;42052;41.634;-0.946;2023-09-19T10:50:52;1.40;;;0.98;;
56171;SDS011;42052;41.634;-0.946;2023-09-19T10:53:29;1.92;;;0.90;;
56171;SDS011;42052;41.634;-0.946;2023-09-19T10:56:37;1.17;;;0.80;;
56171;SDS011;42052;41.634;-0.946;2023-09-19T10:59:11;1.30;;;0.80;;
56171;SDS011;42052;41.634;-0.946;2023-09-19T11:02:15;1.25;;;0.77;;
56171;SDS011;42052;41.634;-0.946;2023-09-19T11:04:40;1.83;;;0.90;;
56171;SDS011;42052;41.634;-0.946;2023-09-19T11:07:09;1.05;;;0.80;;
56171;SDS011;42052;41.634;-0.946;2023-09-19T11:09:43;2.17;;;1.02;;
56171;SDS011;42052;41.634;-0.946;2023-09-19T11:14:57;1.08;;;0.75;;
56171;SDS011;42052;41.634;-0.946;2023-09-19T11:17:33;2.10;;;0.80;;
56171;SDS011;42052;41.634;-0.946;2023-09-19T11:28:27;1.10;;;0.90;;
56171;SDS011;42052;41.634;-0.946;2023-09-19T11:30:55;1.17;;;0.70;;
56171;SDS011;42052;41.634;-0.946;2023-09-19T11:33:24;1.20;;;0.88;;
56171;SDS011;42052;41.634;-0.946;2023-09-19T11:46:28;2.30;;;0.80;;
56171;SDS011;42052;41.634;-0.946;2023-09-19T11:49:13;1.63;;;0.80;;
56171;SDS011;42052;41.634;-0.946;2023-09-19T11:51:45;1.48;;;0.90;;
56171;SDS011;42052;41.634;-0.946;2023-09-19T11:54:14;1.73;;;1.05;;
56171;SDS011;42052;41.634;-0.946;2023-09-19T11:56:54;0.75;;;0.70;;
56171;SDS011;42052;41.634;-0.946;2023-09-19T11:59:21;1.20;;;0.85;;
56171;SDS011;42052;41.634;-0.946;2023-09-19T12:01:54;1.42;;;0.80;;
56171;SDS011;42052;41.634;-0.946;2023-09-19T12:07:04;1.48;;;0.90;;
56171;SDS011;42052;41.634;-0.946;2023-09-19T12:09:38;1.73;;;0.95;;
56171;SDS011;42052;41.634;-0.946;2023-09-19T12:12:07;1.20;;;0.90;;
56171;SDS011;42052;41.634;-0.946;2023-09-19T12:14:34;1.45;;;0.82;;
56171;SDS011;42052;41.634;-0.946;2023-09-19T12:17:00;1.13;;;0.80;;
56171;SDS011;42052;41.634;-0.946;2023-09-19T12:19:28;1.27;;;0.82;;
56171;SDS011;42052;41.634;-0.946;2023-09-19T12:22:00;1.50;;;0.90;;
56171;SDS011;42052;41.634;-0.946;2023-09-19T12:24:30;1.48;;;0.93;;
56171;SDS011;42052;41.634;-0.946;2023-09-19T12:27:04;1.52;;;0.98;;
56171;SDS011;42052;41.634;-0.946;2023-09-19T12:29:31;1.25;;;0.90;;
56171;SDS011;42052;41.634;-0.946;2023-09-19T12:32:06;1.88;;;1.15;;
56171;SDS011;42052;41.634;-0.946;2023-09-19T12:34:33;3.53;;;1.85;;
56171;SDS011;42052;41.634;-0.946;2023-09-19T12:37:15;2.40;;;1.20;;
56171;SDS011;42052;41.634;-0.946;2023-09-19T12:39:45;1.27;;;1.10;;
56171;SDS011;42052;41.634;-0.946;2023-09-19T12:42:19;2.42;;;1.10;;
56171;SDS011;42052;41.634;-0.946;2023-09-19T12:44:46;1.17;;;0.90;;
56171;SDS011;42052;41.634;-0.946;2023-09-19T12:47:17;2.40;;;1.00;;
56171;SDS011;42052;41.634;-0.946;2023-09-19T12:58:03;1.80;;;0.85;;
56171;SDS011;42052;41.634;-0.946;2023-09-19T13:00:43;2.65;;;1.10;;
56171;SDS011;42052;41.634;-0.946;2023-09-19T13:05:52;1.88;;;1.02;;
56171;SDS011;42052;41.634;-0.946;2023-09-19T13:08:35;1.60;;;1.10;;
56171;SDS011;42052;41.634;-0.946;2023-09-19T13:11:15;1.48;;;0.95;;
56171;SDS011;42052;41.634;-0.946;2023-09-19T13:13:45;1.98;;;1.17;;
56171;SDS011;42052;41.634;-0.946;2023-09-19T13:16:14;2.28;;;1.20;;
56171;SDS011;42052;41.634;-0.946;2023-09-19T13:18:47;2.40;;;1.08;;
56171;SDS011;42052;41.634;-0.946;2023-09-19T13:21:26;1.63;;;1.00;;
56171;SDS011;42052;41.634;-0.946;2023-09-19T13:23:55;2.22;;;1.17;;
56171;SDS011;42052;41.634;-0.946;2023-09-19T13:26:41;2.22;;;1.20;;
56171;SDS011;42052;41.634;-0.946;2023-09-19T13:29:07;2.22;;;1.30;;
56171;SDS011;42052;41.634;-0.946;2023-09-19T13:31:33;1.98;;;1.05;;
56171;SDS011;42052;41.634;-0.946;2023-09-19T13:33:59;2.97;;;1.20;;
56171;SDS011;42052;41.634;-0.946;2023-09-19T13:36:24;2.00;;;1.30;;
56171;SDS011;42052;41.634;-0.946;2023-09-19T13:38:50;1.55;;;1.00;;
56171;SDS011;42052;41.634;-0.946;2023-09-19T13:41:19;2.10;;;1.23;;
56171;SDS011;42052;41.634;-0.946;2023-09-19T13:43:44;2.55;;;1.20;;
56171;SDS011;42052;41.634;-0.946;2023-09-19T13:46:14;1.58;;;1.02;;
56171;SDS011;42052;41.634;-0.946;2023-09-19T13:48:43;2.33;;;1.02;;
56171;SDS011;42052;41.634;-0.946;2023-09-19T13:51:09;1.77;;;1.17;;
56171;SDS011;42052;41.634;-0.946;2023-09-19T13:53:35;3.05;;;1.20;;
56171;SDS011;42052;41.634;-0.946;2023-09-19T13:56:01;2.58;;;1.20;;
56171;SDS011;42052;41.634;-0.946;2023-09-19T13:58:27;2.10;;;1.13;;
56171;SDS011;42052;41.634;-0.946;2023-09-19T14:00:53;1.60;;;1.08;;
56171;SDS011;42052;41.634;-0.946;2023-09-19T14:03:23;2.10;;;1.10;;
56171;SDS011;42052;41.634;-0.946;2023-09-19T14:05:49;1.95;;;1.27;;
56171;SDS011;42052;41.634;-0.946;2023-09-19T14:08:16;4.05;;;1.17;;
56171;SDS011;42052;41.634;-0.946;2023-09-19T14:10:42;1.60;;;1.20;;
56171;SDS011;42052;41.634;-0.946;2023-09-19T14:13:08;1.60;;;1.00;;
56171;SDS011;42052;41.634;-0.946;2023-09-19T14:15:36;2.00;;;1.10;;
56171;SDS011;42052;41.634;-0.946;2023-09-19T14:18:03;2.47;;;1.20;;
56171;SDS011;42052;41.634;-0.946;2023-09-19T14:20:29;1.60;;;1.10;;
56171;SDS011;42052;41.634;-0.946;2023-09-19T14:22:57;2.00;;;1.20;;
56171;SDS011;42052;41.634;-0.946;2023-09-19T14:25:24;1.90;;;0.85;;
56171;SDS011;42052;41.634;-0.946;2023-09-19T14:27:50;2.10;;;1.10;;
56171;SDS011;42052;41.634;-0.946;2023-09-19T14:30:16;1.80;;;1.02;;
56171;SDS011;42052;41.634;-0.946;2023-09-19T14:32:42;2.05;;;1.05;;
56171;SDS011;42052;41.634;-0.946;2023-09-19T14:35:08;2.03;;;1.17;;
56171;SDS011;42052;41.634;-0.946;2023-09-19T14:37:39;1.65;;;1.17;;
56171;SDS011;42052;41.634;-0.946;2023-09-19T14:40:05;3.03;;;1.30;;
56171;SDS011;42052;41.634;-0.946;2023-09-19T14:42:34;2.97;;;1.27;;
56171;SDS011;42052;41.634;-0.946;2023-09-19T14:45:07;1.95;;;1.10;;
56171;SDS011;42052;41.634;-0.946;2023-09-19T14:47:34;2.13;;;1.20;;
56171;SDS011;42052;41.634;-0.946;2023-09-19T14:50:03;1.83;;;1.10;;
56171;SDS011;42052;41.634;-0.946;2023-09-19T14:52:31;1.48;;;0.98;;
56171;SDS011;42052;41.634;-0.946;2023-09-19T14:54:59;1.58;;;1.00;;
56171;SDS011;42052;41.634;-0.946;2023-09-19T14:57:26;1.73;;;1.15;;
56171;SDS011;42052;41.634;-0.946;2023-09-19T14:59:52;1.98;;;1.10;;
56171;SDS011;42052;41.634;-0.946;2023-09-19T15:02:19;1.40;;;0.90;;
56171;SDS011;42052;41.634;-0.946;2023-09-19T15:04:45;1.65;;;1.08;;
56171;SDS011;42052;41.634;-0.946;2023-09-19T15:07:12;1.55;;;1.10;;
56171;SDS011;42052;41.634;-0.946;2023-09-19T15:09:43;2.30;;;1.00;;
56171;SDS011;42052;41.634;-0.946;2023-09-19T15:12:10;2.13;;;1.20;;
56171;SDS011;42052;41.634;-0.946;2023-09-19T15:14:39;1.60;;;1.05;;
56171;SDS011;42052;41.634;-0.946;2023-09-19T15:17:07;1.77;;;1.25;;
56171;SDS011;42052;41.634;-0.946;2023-09-19T15:19:33;1.58;;;0.93;;
56171;SDS011;42052;41.634;-0.946;2023-09-19T15:21:58;1.27;;;0.88;;
56171;SDS011;42052;41.634;-0.946;2023-09-19T15:24:25;1.48;;;0.93;;
56171;SDS011;42052;41.634;-0.946;2023-09-19T15:26:51;2.40;;;1.10;;
56171;SDS011;42052;41.634;-0.946;2023-09-19T15:29:18;1.58;;;1.10;;
56171;SDS011;42052;41.634;-0.946;2023-09-19T15:31:45;2.28;;;1.13;;
56171;SDS011;42052;41.634;-0.946;2023-09-19T15:34:10;1.83;;;1.10;;
56171;SDS011;42052;41.634;-0.946;2023-09-19T15:36:39;3.38;;;1.30;;
56171;SDS011;42052;41.634;-0.946;2023-09-19T15:39:07;1.15;;;0.90;;
56171;SDS011;42052;41.634;-0.946;2023-09-19T15:41:36;1.65;;;1.00;;
56171;SDS011;42052;41.634;-0.946;2023-09-19T15:44:03;1.50;;;1.00;;
56171;SDS011;42052;41.634;-0.946;2023-09-19T15:46:35;1.75;;;1.10;;
56171;SDS011;42052;41.634;-0.946;2023-09-19T15:49:03;1.17;;;0.80;;
56171;SDS011;42052;41.634;-0.946;2023-09-19T15:51:29;1.30;;;1.10;;
56171;SDS011;42052;41.634;-0.946;2023-09-19T15:53:56;1.50;;;0.85;;
56171;SDS011;42052;41.634;-0.946;2023-09-19T15:56:24;2.03;;;1.05;;
56171;SDS011;42052;41.634;-0.946;2023-09-19T15:58:51;1.67;;;1.00;;